createdAt,value
2023-01-08T00:02:20.982Z,97.50
2023-01-08T00:05:22.488Z,97.50
2023-01-08T00:08:26.268Z,96.80
2023-01-08T00:11:30.950Z,97.20
2023-01-08T00:14:32.631Z,97.10
2023-01-08T00:17:34.086Z,96.90
2023-01-08T00:20:35.684Z,96.90
2023-01-08T00:23:37.441Z,97.30
2023-01-08T00:26:40.240Z,96.60
2023-01-08T00:29:41.756Z,97.20
2023-01-08T00:32:43.548Z,96.90
2023-01-08T00:35:45.147Z,96.80
2023-01-08T00:38:47.037Z,97.10
2023-01-08T00:41:51.637Z,97.10
2023-01-08T00:44:53.142Z,96.90
2023-01-08T00:47:54.808Z,97.10
2023-01-08T00:51:03.691Z,97.00
2023-01-08T00:54:05.325Z,97.10
2023-01-08T00:57:06.825Z,97.00
2023-01-08T01:00:11.229Z,97.10
2023-01-08T01:03:16.298Z,96.80
2023-01-08T01:06:17.802Z,97.60
2023-01-08T01:09:19.308Z,97.00
2023-01-08T01:12:20.833Z,97.00
2023-01-08T01:15:24.702Z,97.00
2023-01-08T01:18:26.734Z,97.10
2023-01-08T01:21:30.565Z,97.70
2023-01-08T01:24:32.115Z,97.10
2023-01-08T01:27:33.687Z,97.30
2023-01-08T01:30:37.272Z,97.40
2023-01-08T01:33:39.038Z,97.10
2023-01-08T01:36:40.545Z,97.70
2023-01-08T01:39:46.598Z,97.20
2023-01-08T01:42:48.137Z,97.20
2023-01-08T01:45:52.651Z,97.10
2023-01-08T01:48:56.527Z,96.90
2023-01-08T01:52:02.255Z,97.20
2023-01-08T01:55:04.001Z,97.20
2023-01-08T01:58:15.895Z,97.10
2023-01-08T02:01:17.510Z,96.50
2023-01-08T02:04:19.102Z,97.10
2023-01-08T02:07:27.528Z,97.20
2023-01-08T02:10:35.729Z,97.20
2023-01-08T02:13:41.789Z,96.50
2023-01-08T02:16:50.357Z,97.30
2023-01-08T02:19:58.050Z,96.60
2023-01-08T02:23:10.737Z,96.70
2023-01-08T02:26:14.470Z,97.30
2023-01-08T02:29:17.812Z,97.40
2023-01-08T02:32:22.493Z,97.30
2023-01-08T02:35:24.375Z,97.30
2023-01-08T02:38:26.264Z,96.70
2023-01-08T02:41:32.876Z,97.20
2023-01-08T02:44:53.303Z,97.30
2023-01-08T02:47:58.935Z,96.60
2023-01-08T02:51:19.470Z,97.40
2023-01-08T02:54:23.471Z,96.60
2023-01-08T02:57:25.270Z,97.80
2023-01-08T03:00:27.227Z,97.60
2023-01-08T03:03:33.569Z,97.50
2023-01-08T03:06:35.053Z,97.60
2023-01-08T03:09:36.604Z,97.30
2023-01-08T03:13:01.342Z,97.40
2023-01-08T03:16:05.137Z,96.60
2023-01-08T03:19:32.729Z,97.40
2023-01-08T03:22:40.404Z,96.70
2023-01-08T03:25:43.279Z,97.70
2023-01-08T03:28:47.021Z,97.40
2023-01-08T03:31:48.935Z,97.50
2023-01-08T03:34:54.705Z,97.70
2023-01-08T03:38:05.327Z,97.40
2023-01-08T03:41:12.529Z,96.70
2023-01-08T03:44:14.176Z,96.70
2023-01-08T03:47:16.066Z,97.30
2023-01-08T03:50:21.540Z,97.40
2023-01-08T03:53:23.039Z,97.90
2023-01-08T03:56:26.801Z,97.20
2023-01-08T03:59:28.599Z,98.00
2023-01-08T04:02:30.203Z,97.20
2023-01-08T04:05:31.777Z,97.20
2023-01-08T04:08:33.236Z,97.40
2023-01-08T04:11:34.741Z,97.40
2023-01-08T04:14:36.270Z,97.30
2023-01-08T04:17:37.756Z,97.40
2023-01-08T04:20:41.723Z,97.60
2023-01-08T04:23:43.178Z,97.80
2023-01-08T04:26:44.800Z,97.30
2023-01-08T04:29:46.313Z,97.30
2023-01-08T04:32:47.782Z,97.20
2023-01-08T04:35:49.292Z,97.30
2023-01-08T04:38:53.193Z,97.30
2023-01-08T04:41:54.705Z,97.40
2023-01-08T04:44:56.207Z,97.40
2023-01-08T04:47:58.370Z,97.30
2023-01-08T04:51:00.311Z,97.80
2023-01-08T04:54:01.787Z,97.40
2023-01-08T04:57:03.248Z,97.50
2023-01-08T05:00:05.019Z,97.50
2023-01-08T05:03:06.593Z,97.40
2023-01-08T05:06:08.185Z,97.60
2023-01-08T05:09:09.747Z,97.80
2023-01-08T05:12:11.197Z,97.90
2023-01-08T05:15:12.991Z,97.80
2023-01-08T05:18:14.532Z,97.40
2023-01-08T05:21:16.680Z,97.50
2023-01-08T05:24:18.160Z,97.50
2023-01-08T05:27:20.698Z,97.70
2023-01-08T05:30:22.323Z,97.40
2023-01-08T05:33:24.202Z,97.60
2023-01-08T05:36:30.019Z,97.40
2023-01-08T05:39:31.487Z,97.30
2023-01-08T05:42:36.757Z,97.90
2023-01-08T05:45:38.290Z,96.70
2023-01-08T05:48:39.833Z,97.50
2023-01-08T05:51:42.565Z,97.40
2023-01-08T05:54:46.328Z,97.50
2023-01-08T05:57:47.815Z,97.60
2023-01-08T06:00:49.283Z,97.70
2023-01-08T06:03:50.994Z,97.70
2023-01-08T06:06:52.464Z,97.70
2023-01-08T06:09:54.019Z,97.70
2023-01-08T06:12:55.584Z,97.60
2023-01-08T06:16:00.678Z,97.50
2023-01-08T06:19:02.217Z,96.90
2023-01-08T06:22:03.726Z,97.50
2023-01-08T06:25:05.474Z,97.60
2023-01-08T06:28:08.303Z,97.40
2023-01-08T06:31:09.865Z,97.50
2023-01-08T06:34:11.489Z,97.50
2023-01-08T06:37:13.065Z,97.40
2023-01-08T06:40:14.598Z,98.20
2023-01-08T06:43:16.083Z,97.50
2023-01-08T06:46:17.616Z,97.70
2023-01-08T06:49:19.749Z,97.40
2023-01-08T06:52:21.330Z,97.50
2023-01-08T06:55:23.647Z,97.50
2023-01-08T06:58:26.370Z,97.70
2023-01-08T07:01:27.990Z,97.80
2023-01-08T07:04:29.559Z,97.90
2023-01-08T07:07:31.028Z,98.20
2023-01-08T07:10:34.199Z,98.20
2023-01-08T07:13:35.760Z,98.20
2023-01-08T07:16:37.293Z,98.20
2023-01-08T07:20:01.440Z,98.50
2023-01-08T07:23:10.155Z,99.10
2023-01-08T07:26:37.962Z,98.60
2023-01-08T07:29:55.464Z,99.50
2023-01-08T07:33:09.075Z,99.80
2023-01-08T07:36:19.271Z,97.70
2023-01-08T07:39:38.914Z,99.90
2023-01-08T07:45:51.727Z,97.40
2023-01-08T07:48:53.186Z,98.50
2023-01-08T07:51:54.661Z,98.10
2023-01-08T07:54:56.108Z,97.90
2023-01-08T07:57:57.676Z,98.00
2023-01-08T08:00:59.533Z,98.00
2023-01-08T08:04:01.102Z,98.00
2023-01-08T08:07:02.619Z,98.60
2023-01-08T08:10:04.836Z,98.00
2023-01-08T08:13:06.312Z,98.00
2023-01-08T08:16:08.247Z,98.00
2023-01-08T08:19:11.064Z,98.00
2023-01-08T08:22:12.949Z,98.10
2023-01-08T08:25:15.181Z,98.30
2023-01-08T08:28:16.678Z,98.10
2023-01-08T08:31:18.359Z,98.30
2023-01-08T08:34:22.405Z,98.20
2023-01-08T08:37:23.885Z,98.50
2023-01-08T08:40:25.759Z,98.50
2023-01-08T08:43:27.256Z,98.50
2023-01-08T08:46:29.176Z,98.50
2023-01-08T08:49:30.667Z,98.70
2023-01-08T08:52:32.717Z,98.70
2023-01-08T08:55:34.550Z,98.40
2023-01-08T08:58:36.078Z,98.40
2023-01-08T09:01:37.637Z,98.20
2023-01-08T09:04:39.134Z,98.40
2023-01-08T09:07:40.659Z,98.30
2023-01-08T09:10:42.425Z,98.20
2023-01-08T09:13:44.032Z,98.20
2023-01-08T09:16:45.578Z,98.30
2023-01-08T09:19:47.290Z,98.20
2023-01-08T09:22:48.835Z,98.10
2023-01-08T09:25:50.297Z,98.20
2023-01-08T09:28:51.781Z,98.40
2023-01-08T09:31:53.446Z,98.00
2023-01-08T09:34:54.975Z,98.10
2023-01-08T09:37:56.492Z,98.00
2023-01-08T09:41:03.575Z,98.00
2023-01-08T09:44:06.237Z,97.20
2023-01-08T09:47:17.675Z,97.90
2023-01-08T09:50:27.738Z,97.80
2023-01-08T09:53:29.455Z,97.70
2023-01-08T09:56:32.896Z,97.70
2023-01-08T09:59:34.362Z,97.70
2023-01-08T10:02:39.582Z,97.60
2023-01-08T10:05:41.778Z,97.60
2023-01-08T10:08:43.356Z,97.60
2023-01-08T10:11:46.211Z,97.50
2023-01-08T10:14:49.831Z,97.50
2023-01-08T10:17:59.151Z,97.40
2023-01-08T10:21:00.659Z,96.60
2023-01-08T10:24:02.119Z,97.40
2023-01-08T10:27:07.506Z,97.40
2023-01-08T10:30:14.707Z,96.70
2023-01-08T10:33:19.944Z,97.20
2023-01-08T10:36:23.291Z,97.20
2023-01-08T10:39:29.189Z,97.10
2023-01-08T10:42:34.110Z,96.40
2023-01-08T10:45:35.651Z,96.90
2023-01-08T10:48:39.027Z,96.90
2023-01-08T10:51:48.101Z,97.20
2023-01-08T10:54:49.568Z,97.00
2023-01-08T10:58:01.287Z,97.20
2023-01-08T11:01:09.897Z,97.00
2023-01-08T11:04:20.495Z,96.60
2023-01-08T11:07:23.149Z,97.20
2023-01-08T11:10:25.610Z,97.10
2023-01-08T11:13:28.064Z,97.20
2023-01-08T11:16:31.142Z,97.40
2023-01-08T11:19:33.444Z,97.40
2023-01-08T11:22:34.911Z,97.80
2023-01-08T11:25:36.667Z,97.10
2023-01-08T11:28:51.166Z,97.10
2023-01-08T11:31:55.825Z,96.20
2023-01-08T11:35:00.878Z,97.00
2023-01-08T11:38:02.804Z,96.90
2023-01-08T11:41:17.399Z,96.90
2023-01-08T11:44:29.826Z,96.30
2023-01-08T11:47:41.937Z,96.20
2023-01-08T11:50:58.529Z,96.90
2023-01-08T11:54:19.160Z,96.20
2023-01-08T11:57:20.611Z,96.20
2023-01-08T12:00:25.156Z,96.80
2023-01-08T12:03:33.795Z,96.10
2023-01-08T12:06:40.129Z,96.20
2023-01-08T12:09:46.258Z,96.80
2023-01-08T12:12:58.512Z,96.10
2023-01-08T12:16:18.766Z,96.20
2023-01-08T12:19:23.128Z,96.30
2023-01-08T12:22:32.160Z,96.30
2023-01-08T12:25:43.546Z,96.40
2023-01-08T12:29:03.693Z,96.70
2023-01-08T12:32:16.867Z,97.70
2023-01-08T12:35:20.984Z,98.20
2023-01-08T12:38:25.578Z,99.00
2023-01-08T12:41:27.344Z,98.00
2023-01-08T12:44:29.811Z,98.40
2023-01-08T12:47:33.886Z,98.50
2023-01-08T12:50:59.523Z,98.20
2023-01-08T12:54:07.128Z,97.10
2023-01-08T12:57:18.596Z,97.00
2023-01-08T13:00:20.998Z,97.00
2023-01-08T13:03:24.983Z,97.20
2023-01-08T13:06:27.056Z,97.80
2023-01-08T13:09:29.187Z,97.80
2023-01-08T13:12:37.582Z,97.80
2023-01-08T13:15:39.123Z,97.00
2023-01-08T13:18:40.912Z,97.60
2023-01-08T13:21:43.147Z,97.60
2023-01-08T13:24:44.700Z,97.50
2023-01-08T13:27:46.717Z,97.40
2023-01-08T13:30:49.767Z,97.40
2023-01-08T13:33:54.271Z,97.40
2023-01-08T13:36:56.947Z,97.70
2023-01-08T13:39:58.422Z,97.60
2023-01-08T13:43:00.113Z,97.70
2023-01-08T13:46:01.627Z,97.60
2023-01-08T13:49:05.024Z,97.60
2023-01-08T13:52:06.631Z,97.60
2023-01-08T13:55:24.169Z,97.50
2023-01-08T13:58:53.084Z,96.80
2023-01-08T14:02:05.182Z,98.20
2023-01-08T14:09:05.720Z,98.60
2023-01-08T14:12:09.174Z,98.50
2023-01-08T14:19:27.897Z,97.90
2023-01-08T14:22:50.290Z,97.30
2023-01-08T14:38:29.083Z,96.30
2023-01-08T14:54:17.204Z,97.60
2023-01-08T15:05:15.091Z,97.10
2023-01-08T15:08:24.117Z,97.10
2023-01-08T15:11:26.776Z,97.20
2023-01-08T15:14:30.745Z,98.00
2023-01-08T15:17:32.310Z,98.30
2023-01-08T15:20:34.558Z,98.00
2023-01-08T15:23:42.722Z,98.00
2023-01-08T15:26:44.267Z,97.20
2023-01-08T15:29:50.229Z,97.80
2023-01-08T15:32:51.721Z,97.20
2023-01-08T15:35:53.247Z,97.90
2023-01-08T15:38:54.737Z,97.90
2023-01-08T15:42:15.067Z,97.90
2023-01-08T15:45:19.543Z,97.30
2023-01-08T15:48:21.032Z,97.10
2023-01-08T15:51:23.288Z,97.80
2023-01-08T15:54:25.717Z,97.70
2023-01-08T15:57:30.046Z,97.90
2023-01-08T16:00:32.614Z,97.70
2023-01-08T16:03:34.076Z,97.80
2023-01-08T16:06:36.320Z,97.90
2023-01-08T16:09:37.797Z,98.00
2023-01-08T16:12:39.284Z,98.40
2023-01-08T16:15:41.911Z,98.00
2023-01-08T16:18:43.916Z,97.70
2023-01-08T16:21:48.061Z,97.80
2023-01-08T16:24:49.518Z,97.90
2023-01-08T16:27:51.265Z,97.60
2023-01-08T16:30:52.898Z,98.00
2023-01-08T16:33:54.383Z,97.60
2023-01-08T16:36:55.828Z,97.60
2023-01-08T16:39:57.392Z,97.60
2023-01-08T16:43:00.932Z,97.40
2023-01-08T16:46:04.234Z,97.40
2023-01-08T16:49:07.510Z,97.70
2023-01-08T16:52:09.816Z,97.30
2023-01-08T16:55:11.339Z,97.50
2023-01-08T16:58:13.151Z,97.70
2023-01-08T17:01:14.769Z,98.10
2023-01-08T17:04:16.327Z,97.60
2023-01-08T17:07:17.854Z,97.70
2023-01-08T17:10:19.830Z,97.70
2023-01-08T17:13:21.345Z,97.90
2023-01-08T17:16:22.947Z,97.50
2023-01-08T17:19:24.487Z,97.60
2023-01-08T17:22:26.011Z,97.70
2023-01-08T17:25:27.472Z,97.70
2023-01-08T17:28:29.008Z,97.80
2023-01-08T17:31:30.609Z,97.70
2023-01-08T17:34:32.086Z,97.70
2023-01-08T17:37:34.118Z,98.40
2023-01-08T17:40:36.231Z,97.90
2023-01-08T17:43:38.623Z,97.90
2023-01-08T17:46:45.105Z,97.80
2023-01-08T17:49:50.277Z,98.30
2023-01-08T17:52:51.803Z,97.20
2023-01-08T17:55:53.577Z,97.80
2023-01-08T17:58:55.059Z,97.70
2023-01-08T18:01:57.682Z,97.90
2023-01-08T18:04:59.226Z,97.90
2023-01-08T18:08:00.745Z,97.80
2023-01-08T18:11:03.286Z,97.80
2023-01-08T18:14:04.779Z,97.90
2023-01-08T18:17:06.318Z,98.30
2023-01-08T18:20:13.644Z,97.90
2023-01-08T18:23:15.198Z,97.70
2023-01-08T18:26:17.435Z,98.10
2023-01-08T18:29:18.958Z,98.00
2023-01-08T18:32:26.074Z,97.90
2023-01-08T18:35:27.615Z,98.30
2023-01-08T18:38:29.273Z,97.80
2023-01-08T18:41:49.582Z,97.90
2023-01-08T18:44:54.440Z,97.30
2023-01-08T18:47:55.958Z,97.80
2023-01-08T18:50:57.517Z,97.80
2023-01-08T18:53:59.022Z,97.80
2023-01-08T18:57:00.528Z,97.70
2023-01-08T19:00:04.062Z,97.70
2023-01-08T19:03:08.765Z,97.70
2023-01-08T19:06:13.987Z,97.70
2023-01-08T19:09:20.297Z,97.00
2023-01-08T19:12:21.783Z,97.80
2023-01-08T19:15:23.327Z,97.70
2023-01-08T19:18:25.459Z,97.70
2023-01-08T19:21:27.006Z,97.60
2023-01-08T19:24:28.608Z,97.40
2023-01-08T19:27:30.196Z,97.40
2023-01-08T19:30:31.754Z,97.50
2023-01-08T19:33:33.580Z,97.40
2023-01-08T19:36:35.334Z,97.50
2023-01-08T19:39:38.582Z,97.40
2023-01-08T19:42:59.088Z,97.30
2023-01-08T19:46:04.206Z,97.00
2023-01-08T19:49:06.124Z,96.50
2023-01-08T19:52:07.579Z,97.20
2023-01-08T19:55:09.321Z,97.40
2023-01-08T19:58:11.090Z,97.30
2023-01-08T20:01:13.998Z,97.30
2023-01-08T20:04:16.778Z,97.50
2023-01-08T20:07:18.759Z,97.30
2023-01-08T20:10:20.254Z,97.40
2023-01-08T20:13:22.029Z,97.30
2023-01-08T20:16:24.405Z,97.20
2023-01-08T20:19:29.050Z,97.20
2023-01-08T20:22:31.056Z,97.80
2023-01-08T20:25:37.989Z,97.60
2023-01-08T20:28:40.652Z,96.90
2023-01-08T20:31:45.735Z,97.50
2023-01-08T20:34:47.295Z,97.80
2023-01-08T20:37:48.896Z,97.10
2023-01-08T20:40:53.293Z,96.90
2023-01-08T20:43:58.354Z,96.60
2023-01-08T20:47:00.959Z,97.10
2023-01-08T20:50:07.137Z,97.30
2023-01-08T20:53:14.258Z,97.00
2023-01-08T20:56:15.800Z,96.90
2023-01-08T20:59:17.390Z,96.90
2023-01-08T21:02:20.571Z,96.60
2023-01-08T21:05:22.344Z,98.20
2023-01-08T21:08:23.821Z,96.60
2023-01-08T21:11:25.486Z,96.80
2023-01-08T21:14:27.023Z,96.80
2023-01-08T21:17:28.504Z,97.20
2023-01-08T21:20:29.984Z,96.90
2023-01-08T21:23:32.145Z,96.80
2023-01-08T21:26:37.327Z,96.80
2023-01-08T21:29:38.851Z,96.10
2023-01-08T21:32:40.335Z,96.80
2023-01-08T21:35:41.829Z,96.90
2023-01-08T21:38:43.565Z,96.80
2023-01-08T21:42:03.884Z,96.80
2023-01-08T21:45:24.435Z,96.10
2023-01-08T21:48:25.935Z,96.40
2023-01-08T21:51:46.011Z,97.00
2023-01-08T21:54:47.629Z,96.20
2023-01-08T21:57:49.110Z,96.70
2023-01-08T22:00:50.645Z,96.90
2023-01-08T22:03:52.201Z,96.80
2023-01-08T22:06:53.777Z,96.90
2023-01-08T22:09:55.352Z,96.90
2023-01-08T22:12:56.887Z,96.80
2023-01-08T22:16:05.847Z,97.00
2023-01-08T22:19:07.373Z,96.20
2023-01-08T22:22:10.700Z,97.00
2023-01-08T22:25:13.032Z,96.90
2023-01-08T22:28:14.618Z,96.80
2023-01-08T22:31:16.475Z,97.40
2023-01-08T22:34:18.763Z,96.90
2023-01-08T22:37:21.645Z,97.20
2023-01-08T22:40:23.157Z,97.00
2023-01-08T22:43:24.751Z,97.00
2023-01-08T22:46:26.563Z,97.00
2023-01-08T22:49:28.103Z,96.90
2023-01-08T22:52:29.572Z,97.00
2023-01-08T22:55:31.030Z,97.10
2023-01-08T22:58:32.525Z,97.00
2023-01-08T23:01:34.042Z,97.10
2023-01-08T23:04:35.611Z,97.20
2023-01-08T23:07:37.133Z,97.20
2023-01-08T23:10:38.602Z,97.20
2023-01-08T23:13:40.140Z,97.20
2023-01-08T23:16:42.257Z,97.30
2023-01-08T23:19:43.853Z,97.40
2023-01-08T23:22:45.787Z,97.60
2023-01-08T23:25:47.382Z,97.30
2023-01-08T23:28:49.521Z,97.30
2023-01-08T23:31:51.063Z,97.40
2023-01-08T23:34:52.581Z,97.40
2023-01-08T23:37:54.027Z,97.20
2023-01-08T23:40:55.703Z,97.40
2023-01-08T23:43:59.741Z,97.30
2023-01-08T23:47:01.228Z,97.40
2023-01-08T23:50:02.736Z,97.40
2023-01-08T23:53:04.477Z,97.40
2023-01-08T23:56:06.287Z,97.30
2023-01-08T23:59:08.139Z,97.00
